createdAt,value
2023-01-27T06:10:02.863Z,24.37
2023-01-27T06:13:33.698Z,35.58
2023-01-27T06:17:06.588Z,37.00
2023-01-27T06:20:31.279Z,63.25
2023-01-27T06:23:46.083Z,37.03
2023-01-27T06:27:13.437Z,31.60
2023-01-27T06:30:55.286Z,46.40
2023-01-27T06:38:00.869Z,29.95
2023-01-27T06:41:18.531Z,30.88
2023-01-27T06:44:23.096Z,30.57
2023-01-27T06:47:40.483Z,26.15
2023-01-27T06:51:03.284Z,28.15
2023-01-27T06:54:41.354Z,30.17
2023-01-27T06:58:31.020Z,27.37
2023-01-27T07:01:59.714Z,29.42
2023-01-27T07:05:14.320Z,32.93
2023-01-27T07:08:25.879Z,32.58
2023-01-27T07:11:47.579Z,32.23
2023-01-27T07:15:04.303Z,29.57
2023-01-27T07:18:26.340Z,27.00
2023-01-27T07:21:47.516Z,26.62
2023-01-27T07:25:29.265Z,26.80
2023-01-27T07:32:28.533Z,24.10
2023-01-27T07:36:12.884Z,27.13
2023-01-27T07:39:29.749Z,26.07
2023-01-27T07:43:01.369Z,26.25
2023-01-27T07:46:49.821Z,26.87
2023-01-27T07:50:09.659Z,26.15
2023-01-27T08:10:04.575Z,22.37
2023-01-27T08:13:46.502Z,22.00
2023-01-27T08:37:37.493Z,28.25
2023-01-27T08:52:18.723Z,26.10
2023-01-27T08:55:58.785Z,27.48
2023-01-27T08:59:19.132Z,23.90
2023-01-27T09:02:46.697Z,23.80
2023-01-27T09:06:16.673Z,21.95
2023-01-27T09:09:33.185Z,23.57
2023-01-27T09:13:08.955Z,21.93
2023-01-27T09:16:39.240Z,22.82
2023-01-27T09:23:32.234Z,21.80
2023-01-27T09:26:51.676Z,36.80
2023-01-27T09:36:43.452Z,23.40
2023-01-27T09:40:11.667Z,23.83
2023-01-27T09:44:04.204Z,23.42
2023-01-27T09:52:09.593Z,23.73
2023-01-27T09:59:33.288Z,23.25
2023-01-27T10:07:02.242Z,22.17
2023-01-27T10:10:45.708Z,23.87
2023-01-27T10:14:30.838Z,20.20
2023-01-27T10:18:32.919Z,20.30
2023-01-27T10:22:17.126Z,20.92
2023-01-27T10:26:13.909Z,20.43
2023-01-27T10:29:43.218Z,21.35
2023-01-27T10:33:17.539Z,18.77
2023-01-27T10:36:52.385Z,20.12
2023-01-27T10:40:19.507Z,18.05
2023-01-27T10:44:06.960Z,18.65
2023-01-27T10:47:30.192Z,18.23
2023-01-27T10:51:00.839Z,17.00
2023-01-27T10:55:01.465Z,17.12
2023-01-27T10:58:35.883Z,21.20
2023-01-27T11:02:00.340Z,19.87
2023-01-27T11:09:08.180Z,18.05
2023-01-27T11:12:40.654Z,17.62
2023-01-27T11:15:55.738Z,17.40
2023-01-27T11:19:21.243Z,17.77
2023-01-27T11:22:40.355Z,16.75
2023-01-27T11:26:43.596Z,18.17
2023-01-27T11:30:13.873Z,19.23
2023-01-27T11:34:00.324Z,19.15
2023-01-27T11:37:15.408Z,18.95
2023-01-27T11:41:14.891Z,19.67
2023-01-27T11:44:48.305Z,17.02
2023-01-27T11:48:34.508Z,17.05
2023-01-27T11:52:54.844Z,18.90
2023-01-27T11:56:48.868Z,17.42
2023-01-27T12:00:36.538Z,17.57
2023-01-27T12:04:14.243Z,17.27
2023-01-27T12:22:38.654Z,18.10
2023-01-27T12:30:09.952Z,32.55
2023-01-27T12:33:39.502Z,18.45
2023-01-27T12:37:07.015Z,18.95
